Aeroporto :







RITROVATECI SU...

 
LOGIN :

Iscrizione | Disclaimer

   EN    FR    IT 

 









Sommario :    VFR   VFR Marginale   IFR   IFR Intensivo   IFR Molto Intensivo
Visibilità : 
Base nubi : 
>= 8 km
>= 3000ft
5 / 8 km
1000 / 3000 ft
1500m / 5 km
500 / 1000 ft
800 / 1500m
200 / 500 ft
< 800m
< 200 ft
Simboli :   Temporali  Nebbia  Neve Forte  Precipitazioni Forti  Vento > 20 kt






- Altitudine del aeroporto : 1166 ft


KMPV - Edward F Knapp State

ULTIMO METAR :
  • 230151Z AUTO 31017G27KT 9SM OVC034 M02/M08 A2978 RMK AO2 PK WND 33034/0139 SNE51 SLP099 P0000 T10221083

METARs OBSOLETI :
  • 230051Z AUTO 30013G21KT 5SM -SN FEW029 OVC033 M02/M07 A2976 RMK AO2 PK WND 31034/2352 SNB11 SLP091 P0000 T10221067
  • 222351Z AUTO 30021G32KT 10SM OVC033 M01/M07 A2973 RMK AO2 PK WND 31032/2351 SLP082 60001 T10111072 10056 21011 51054
  • 222337Z AUTO 32016G31KT 10SM SCT025 OVC033 M01/M07 A2972 RMK AO2 PK WND 33031/2335 T10111072

TAF KMPV
Valido dal 23 a 00 ore il 24 a 00 ore UTC


222326Z 2300/2324 30014G26KT P6SM BKN030
FM230200 29014KT P6SM SCT035
FM230600 27006KT P6SM FEW250 WS020/31035KT
FM231300 24005KT P6SM FEW200



MetMap, La meteo Aeronautica in un colpo d'occhio ! - Copyright ORBIFLY Dicembre 2007 - Disclaimer

ORBIFLY MET'MAP TEAM :

Programmazione e sviluppo : Alexandra Zaïnal
Concezione e sviluppo : Baudouin d'Aumeries
Co-Programmazione e sviluppo : Marc-Olivier Méhu
Supporto tecnico e logistico : Manuel Goepfert
Aiuto per la traduzione : Arnaldo La Scala

Contatto : metmap@orbifly.com




FONTI E CREDITI :

   NOAA